Kessler, West Virginia
Current Conditions -  °F | °C
As of 3:35 AM on Friday 24 Oct 2014 (Local Time) from KLWB Reporting Station
Haze Haze  
Wind Chill: 38°   Ceiling: 700
Heat Index: 38°   Visibility: 1.7mi
Dew Point: 37°   Wind: 0mph
Humidity: 93%   Direction: NA
Pressure: 30.08"   Gusts: NA
Location:  37.948°N, 80.6919°W
Report Text: KLWB 240735Z AUTO 00000KT 1 3/4SM BR VV007 04/03 A3008 RMK AO2 T00350025
Loading
Personal Weather Stations






























Interactive Weather Map
Tropical Storm Tracking
New forecast layout! Learn more

10-Day Weather Forecast

Advertisements
Track Severe Weather on mobile